• Join FlightAware (Why Join?)
  • Login
  • US Flag 
11:07AM EDT


 

Airport Tracker/Info


-or-


 

Live Flight TrackerFlight Track Log ✈ ASQ4252 ✈ 03-Jun-2013 ✈ KIAH - KBTR

Flight Track Log - Related Links

Times and Time Zones

All times are in EDT time to prevent confusion due to time zone crossing. See the ASQ4252 flight status page for this flight to view local times or setup timezone preferences in your user account.

Time Position Orientation Groundspeed Altitude Reporting Facility
EDT Latitude Longitude Course Direction KTS MPH feet Rate Location/Type
01:20PM 29.9572 -95.3392 90° East 177 204 900  Level Houston Center
01:21PM 29.9208 -95.2914 131° Southeast 208 239 2,900 2,280 Climbing Houston Center
01:21PM 29.9069 -95.2731 131° Southeast 254 292 3,700 1,020 Climbing Houston Center
01:22PM 29.8728 -95.2267 130° Southeast 248 285 4,000 780 Climbing Houston Center
01:22PM 29.8450 -95.1939 134° Southeast 280 322 4,700 2,280 Climbing Houston Center
01:23PM 29.9834 -94.9077 90° East  Level FlightAware Approximate
01:23PM 29.8314 -95.1542 112° Southeast 282 325 6,400  Level Houston Center
01:23PM 29.8339 -95.1206 85° East 261 300 7,400 2,460 Climbing Houston Center
01:24PM 29.9834 -94.8013 90° East  Level FlightAware Approximate
01:24PM 29.8447 -95.0694 76° East 268 308 9,000  Level Houston Center
01:25PM 29.9834 -94.6949 90° East  Level FlightAware Approximate
01:25PM 29.8628 -94.9817 77° East 279 321 11,300  Level Houston Center
01:26PM 29.8828 -94.8822 77° East 312 359 12,600 1,020 Climbing Houston Center
01:27PM 29.9047 -94.7708 77° East 350 403 13,500 960 Climbing Houston Center
01:28PM 29.9333 -94.6253 77° East 384 442 14,700 1,260 Climbing Houston Center
01:29PM 29.9575 -94.5008 77° East 396 456 16,200 1,560 Climbing Houston Center
01:30PM 29.9822 -94.3736 77° East 391 450 18,000 1,620 Climbing Houston Center
01:31PM 30.0036 -94.2519 78° East 389 448 19,600 1,500 Climbing Houston Center
01:32PM 30.0181 -94.1300 82° East 386 444 21,200 1,380 Climbing Houston Center
01:33PM 30.0342 -94.0075 81° East 389 448 22,500 840 Climbing Houston Center
01:34PM 30.0486 -93.8817 82° East 399 459 23,000 240 Climbing Houston Center
01:35PM 30.0686 -93.7153 82° East 438 504 23,000  Level Houston Center
01:36PM 30.0856 -93.5714 82° East 456 525 23,000  Level Houston Center
01:37PM 30.1022 -93.4267 82° East 462 532 23,000  Level Houston Center
01:38PM 30.1194 -93.2803 82° East 466 536 23,000 -60 Level Houston Center
01:39PM 30.1414 -93.1056 82° East 464 534 22,900 -540 Descending Houston Center
01:40PM 30.1686 -92.9614 78° East 463 533 22,000 -960 Descending Houston Center
01:41PM 30.1972 -92.8222 77° East 450 518 21,000 -960 Descending Houston Center
01:42PM 30.2244 -92.6833 77° East 448 516 20,100 -960 Descending Houston Center
01:43PM 30.2514 -92.5469 77° East 440 506 19,100 -540 Descending Houston Center
01:44PM 30.2778 -92.4111 77° East 436 502 19,000 -60 Descending Houston Center
01:45PM 30.3047 -92.2597 78° East 435 501 19,000 -780 Level Houston Center
01:46PM 30.3300 -92.1244 78° East 433 498 17,500 -1,740 Descending Houston Center
01:47PM 30.3556 -91.9958 77° East 417 480 15,500 -2,160 Descending Houston Center
01:48PM 30.3833 -91.8442 78° East 404 465 13,100 -2,100 Descending Houston Center
01:49PM 30.4053 -91.7308 77° East 367 422 11,200 -1,200 Descending Houston Center
01:51PM 30.4236 -91.6331 78° East 301 346 10,700 -1,440 Descending Houston Center
01:52PM 30.4367 -91.5486 80° East 270 311 8,300 -2,160 Descending Houston Center
01:53PM 30.4417 -91.4617 86° East 269 310 6,300 -2,040 Descending Houston Center
01:54PM 30.4458 -91.3797 87° East 259 298 4,200 -1,260 Descending Houston Center
01:55PM 30.4492 -91.2978 87° East 258 297 3,800 -420 Descending Houston Center